sensor_id;sensor_type;location;lat;lon;timestamp;pressure;altitude;pressure_sealevel;temperature;humidity
59588;BME280;45412;54.472;18.464;2023-11-21T00:01:07;99465.00;;;-0.56;88.60
59588;BME280;45412;54.472;18.464;2023-11-21T00:03:57;99465.42;;;-0.54;88.45
59588;BME280;45412;54.472;18.464;2023-11-21T00:06:45;99463.73;;;-0.51;88.02
59588;BME280;45412;54.472;18.464;2023-11-21T00:09:34;99469.13;;;-0.51;87.92
59588;BME280;45412;54.472;18.464;2023-11-21T00:12:24;99469.45;;;-0.51;87.66
59588;BME280;45412;54.472;18.464;2023-11-21T00:15:12;99474.31;;;-0.50;87.81
59588;BME280;45412;54.472;18.464;2023-11-21T00:18:01;99469.76;;;-0.49;88.14
59588;BME280;45412;54.472;18.464;2023-11-21T00:20:49;99476.48;;;-0.47;88.37
59588;BME280;45412;54.472;18.464;2023-11-21T00:23:37;99472.21;;;-0.45;87.73
59588;BME280;45412;54.472;18.464;2023-11-21T00:26:25;99472.21;;;-0.45;87.42
59588;BME280;45412;54.472;18.464;2023-11-21T00:29:18;99480.17;;;-0.44;87.95
59588;BME280;45412;54.472;18.464;2023-11-21T00:32:07;99483.84;;;-0.44;86.97
59588;BME280;45412;54.472;18.464;2023-11-21T00:34:55;99492.87;;;-0.43;87.27
59588;BME280;45412;54.472;18.464;2023-11-21T00:37:44;99495.72;;;-0.41;87.67
59588;BME280;45412;54.472;18.464;2023-11-21T00:40:32;99491.17;;;-0.40;87.19
59588;BME280;45412;54.472;18.464;2023-11-21T00:43:24;99491.55;;;-0.37;86.36
59588;BME280;45412;54.472;18.464;2023-11-21T00:46:12;99486.44;;;-0.31;85.53
59588;BME280;45412;54.472;18.464;2023-11-21T00:49:01;99484.48;;;-0.26;85.46
59588;BME280;45412;54.472;18.464;2023-11-21T00:51:52;99484.30;;;-0.22;84.67
59588;BME280;45412;54.472;18.464;2023-11-21T00:54:40;99487.91;;;-0.17;85.42
59588;BME280;45412;54.472;18.464;2023-11-21T00:57:28;99493.15;;;-0.12;85.54
59588;BME280;45412;54.472;18.464;2023-11-21T01:00:17;99495.43;;;-0.09;85.38
59588;BME280;45412;54.472;18.464;2023-11-21T01:03:05;99497.23;;;-0.06;84.92
59588;BME280;45412;54.472;18.464;2023-11-21T01:05:55;99499.90;;;-0.03;84.63
59588;BME280;45412;54.472;18.464;2023-11-21T01:08:44;99502.16;;;0.01;85.14
59588;BME280;45412;54.472;18.464;2023-11-21T01:11:32;99508.99;;;0.09;85.51
59588;BME280;45412;54.472;18.464;2023-11-21T01:14:23;99510.83;;;0.14;85.29
59588;BME280;45412;54.472;18.464;2023-11-21T01:17:11;99507.22;;;0.18;85.33
59588;BME280;45412;54.472;18.464;2023-11-21T01:20:00;99509.34;;;0.21;84.76
59588;BME280;45412;54.472;18.464;2023-11-21T01:22:48;99512.04;;;0.23;84.85
59588;BME280;45412;54.472;18.464;2023-11-21T01:25:39;99515.27;;;0.25;84.74
59588;BME280;45412;54.472;18.464;2023-11-21T01:28:26;99521.61;;;0.27;84.62
59588;BME280;45412;54.472;18.464;2023-11-21T01:31:15;99524.11;;;0.30;84.77
59588;BME280;45412;54.472;18.464;2023-11-21T01:34:04;99527.35;;;0.31;84.14
59588;BME280;45412;54.472;18.464;2023-11-21T01:36:52;99526.04;;;0.34;84.30
59588;BME280;45412;54.472;18.464;2023-11-21T01:39:40;99528.48;;;0.38;84.36
59588;BME280;45412;54.472;18.464;2023-11-21T01:42:28;99535.08;;;0.42;84.07
59588;BME280;45412;54.472;18.464;2023-11-21T01:45:16;99540.13;;;0.47;84.12
59588;BME280;45412;54.472;18.464;2023-11-21T01:48:04;99542.23;;;0.51;84.11
59588;BME280;45412;54.472;18.464;2023-11-21T01:50:54;99535.30;;;0.50;84.10
59588;BME280;45412;54.472;18.464;2023-11-21T01:53:43;99542.27;;;0.54;84.01
59588;BME280;45412;54.472;18.464;2023-11-21T01:56:32;99540.17;;;0.54;83.41
59588;BME280;45412;54.472;18.464;2023-11-21T01:59:21;99542.64;;;0.53;83.77
59588;BME280;45412;54.472;18.464;2023-11-21T02:02:10;99539.48;;;0.50;83.43
59588;BME280;45412;54.472;18.464;2023-11-21T02:04:58;99550.15;;;0.53;83.03
59588;BME280;45412;54.472;18.464;2023-11-21T02:07:46;99553.52;;;0.56;83.59
59588;BME280;45412;54.472;18.464;2023-11-21T02:10:37;99550.70;;;0.56;82.86
59588;BME280;45412;54.472;18.464;2023-11-21T02:13:25;99554.55;;;0.56;82.93
59588;BME280;45412;54.472;18.464;2023-11-21T02:16:13;99554.94;;;0.56;81.41
59588;BME280;45412;54.472;18.464;2023-11-21T02:19:04;99553.61;;;0.54;81.66
59588;BME280;45412;54.472;18.464;2023-11-21T02:21:57;99555.39;;;0.53;81.77
59588;BME280;45412;54.472;18.464;2023-11-21T02:24:51;99558.73;;;0.53;81.17
59588;BME280;45412;54.472;18.464;2023-11-21T02:27:40;99560.92;;;0.55;81.62
59588;BME280;45412;54.472;18.464;2023-11-21T02:30:28;99564.70;;;0.56;80.68
59588;BME280;45412;54.472;18.464;2023-11-21T02:33:17;99570.52;;;0.55;80.44
59588;BME280;45412;54.472;18.464;2023-11-21T02:36:08;99568.38;;;0.56;80.34
59588;BME280;45412;54.472;18.464;2023-11-21T02:38:56;99572.39;;;0.55;80.21
59588;BME280;45412;54.472;18.464;2023-11-21T02:41:44;99576.46;;;0.54;79.74
59588;BME280;45412;54.472;18.464;2023-11-21T02:44:32;99576.03;;;0.53;79.90
59588;BME280;45412;54.472;18.464;2023-11-21T02:47:19;99583.34;;;0.53;79.90
59588;BME280;45412;54.472;18.464;2023-11-21T02:50:08;99587.84;;;0.54;79.94
59588;BME280;45412;54.472;18.464;2023-11-21T02:52:56;99587.47;;;0.54;79.94
59588;BME280;45412;54.472;18.464;2023-11-21T02:55:45;99586.29;;;0.53;80.15
59588;BME280;45412;54.472;18.464;2023-11-21T02:58:33;99588.54;;;0.54;79.69
59588;BME280;45412;54.472;18.464;2023-11-21T03:01:20;99586.13;;;0.53;79.91
59588;BME280;45412;54.472;18.464;2023-11-21T03:04:08;99589.69;;;0.52;79.44
59588;BME280;45412;54.472;18.464;2023-11-21T03:06:56;99594.77;;;0.51;79.61
59588;BME280;45412;54.472;18.464;2023-11-21T03:09:45;99593.08;;;0.54;79.86
59588;BME280;45412;54.472;18.464;2023-11-21T03:12:35;99596.55;;;0.58;80.32
59588;BME280;45412;54.472;18.464;2023-11-21T03:15:23;99599.73;;;0.61;80.18
59588;BME280;45412;54.472;18.464;2023-11-21T03:18:12;99602.55;;;0.61;80.04
59588;BME280;45412;54.472;18.464;2023-11-21T03:21:01;99603.80;;;0.60;80.57
59588;BME280;45412;54.472;18.464;2023-11-21T03:23:48;99606.05;;;0.60;80.61
59588;BME280;45412;54.472;18.464;2023-11-21T03:26:36;99605.95;;;0.59;80.48
59588;BME280;45412;54.472;18.464;2023-11-21T03:29:25;99607.10;;;0.56;80.36
59588;BME280;45412;54.472;18.464;2023-11-21T03:32:13;99600.90;;;0.55;80.58
59588;BME280;45412;54.472;18.464;2023-11-21T03:35:01;99604.02;;;0.55;80.34
59588;BME280;45412;54.472;18.464;2023-11-21T03:37:49;99601.55;;;0.56;80.19
59588;BME280;45412;54.472;18.464;2023-11-21T03:40:37;99599.21;;;0.53;79.80
59588;BME280;45412;54.472;18.464;2023-11-21T03:43:27;99593.02;;;0.47;79.80
59588;BME280;45412;54.472;18.464;2023-11-21T03:46:15;99600.65;;;0.48;79.81
59588;BME280;45412;54.472;18.464;2023-11-21T03:49:03;99604.21;;;0.47;80.12
59588;BME280;45412;54.472;18.464;2023-11-21T03:51:50;99597.58;;;0.42;80.38
59588;BME280;45412;54.472;18.464;2023-11-21T03:54:38;99604.66;;;0.44;80.25
59588;BME280;45412;54.472;18.464;2023-11-21T03:57:28;99603.83;;;0.43;79.37
59588;BME280;45412;54.472;18.464;2023-11-21T04:00:16;99610.64;;;0.43;79.66
59588;BME280;45412;54.472;18.464;2023-11-21T04:03:04;99611.91;;;0.46;80.11
59588;BME280;45412;54.472;18.464;2023-11-21T04:05:52;99615.37;;;0.47;79.69
59588;BME280;45412;54.472;18.464;2023-11-21T04:08:40;99617.90;;;0.45;79.91
59588;BME280;45412;54.472;18.464;2023-11-21T04:11:28;99621.67;;;0.42;79.93
59588;BME280;45412;54.472;18.464;2023-11-21T04:14:18;99627.63;;;0.42;80.22
59588;BME280;45412;54.472;18.464;2023-11-21T04:17:07;99629.09;;;0.40;80.37
59588;BME280;45412;54.472;18.464;2023-11-21T04:19:55;99631.16;;;0.41;80.33
59588;BME280;45412;54.472;18.464;2023-11-21T04:22:44;99628.73;;;0.37;80.30
59588;BME280;45412;54.472;18.464;2023-11-21T04:25:32;99634.73;;;0.39;80.35
59588;BME280;45412;54.472;18.464;2023-11-21T04:28:20;99626.89;;;0.35;80.40
59588;BME280;45412;54.472;18.464;2023-11-21T04:31:08;99634.20;;;0.35;80.13
59588;BME280;45412;54.472;18.464;2023-11-21T04:33:56;99639.27;;;0.31;80.17
59588;BME280;45412;54.472;18.464;2023-11-21T04:36:43;99639.89;;;0.24;80.03
59588;BME280;45412;54.472;18.464;2023-11-21T04:39:31;99650.36;;;0.20;80.05
59588;BME280;45412;54.472;18.464;2023-11-21T04:42:19;99656.93;;;0.17;80.41
59588;BME280;45412;54.472;18.464;2023-11-21T04:45:08;99658.09;;;0.14;80.05
59588;BME280;45412;54.472;18.464;2023-11-21T04:47:57;99659.60;;;0.11;80.05
59588;BME280;45412;54.472;18.464;2023-11-21T04:50:45;99661.05;;;0.10;79.80
59588;BME280;45412;54.472;18.464;2023-11-21T04:53:33;99668.65;;;0.08;80.17
59588;BME280;45412;54.472;18.464;2023-11-21T04:56:22;99672.86;;;0.03;79.47
59588;BME280;45412;54.472;18.464;2023-11-21T04:59:09;99678.45;;;-0.02;79.67
59588;BME280;45412;54.472;18.464;2023-11-21T05:01:57;99680.80;;;-0.04;79.92
59588;BME280;45412;54.472;18.464;2023-11-21T05:04:45;99686.59;;;-0.05;79.66
59588;BME280;45412;54.472;18.464;2023-11-21T05:07:33;99686.39;;;-0.04;79.54
59588;BME280;45412;54.472;18.464;2023-11-21T05:10:23;99689.90;;;-0.05;79.42
59588;BME280;45412;54.472;18.464;2023-11-21T05:13:11;99695.34;;;-0.05;79.08
59588;BME280;45412;54.472;18.464;2023-11-21T05:15:59;99702.06;;;-0.08;79.05
59588;BME280;45412;54.472;18.464;2023-11-21T05:18:46;99711.23;;;-0.10;79.08
59588;BME280;45412;54.472;18.464;2023-11-21T05:21:34;99716.52;;;-0.11;79.63
59588;BME280;45412;54.472;18.464;2023-11-21T05:24:23;99724.49;;;-0.10;79.88
59588;BME280;45412;54.472;18.464;2023-11-21T05:27:11;99735.21;;;-0.08;79.89
59588;BME280;45412;54.472;18.464;2023-11-21T05:30:03;99740.35;;;-0.06;80.21
59588;BME280;45412;54.472;18.464;2023-11-21T05:32:53;99742.90;;;-0.04;80.07
59588;BME280;45412;54.472;18.464;2023-11-21T05:35:41;99745.51;;;-0.04;80.14
59588;BME280;45412;54.472;18.464;2023-11-21T05:38:29;99746.59;;;-0.05;80.11
59588;BME280;45412;54.472;18.464;2023-11-21T05:41:17;99746.08;;;-0.05;80.04
59588;BME280;45412;54.472;18.464;2023-11-21T05:44:05;99751.65;;;-0.04;80.26
59588;BME280;45412;54.472;18.464;2023-11-21T05:46:53;99758.92;;;-0.03;80.58
59588;BME280;45412;54.472;18.464;2023-11-21T05:49:41;99766.92;;;-0.03;80.40
59588;BME280;45412;54.472;18.464;2023-11-21T05:52:29;99774.79;;;-0.03;80.49
59588;BME280;45412;54.472;18.464;2023-11-21T05:55:17;99772.55;;;-0.04;80.58
59588;BME280;45412;54.472;18.464;2023-11-21T05:58:05;99771.79;;;-0.02;80.78
59588;BME280;45412;54.472;18.464;2023-11-21T06:00:54;99780.64;;;-0.01;81.10
59588;BME280;45412;54.472;18.464;2023-11-21T06:03:42;99786.31;;;0.01;81.20
59588;BME280;45412;54.472;18.464;2023-11-21T06:06:31;99792.60;;;0.02;80.91
59588;BME280;45412;54.472;18.464;2023-11-21T06:09:18;99801.40;;;-0.01;80.48
59588;BME280;45412;54.472;18.464;2023-11-21T06:12:07;99804.27;;;-0.03;80.51
59588;BME280;45412;54.472;18.464;2023-11-21T06:14:55;99809.21;;;-0.05;80.49
59588;BME280;45412;54.472;18.464;2023-11-21T06:17:43;99810.45;;;-0.05;80.40
59588;BME280;45412;54.472;18.464;2023-11-21T06:20:32;99819.78;;;-0.03;80.91
59588;BME280;45412;54.472;18.464;2023-11-21T06:23:19;99821.05;;;0.01;81.35
59588;BME280;45412;54.472;18.464;2023-11-21T06:26:07;99821.76;;;0.01;81.05
59588;BME280;45412;54.472;18.464;2023-11-21T06:28:56;99823.10;;;-0.03;80.66
59588;BME280;45412;54.472;18.464;2023-11-21T06:31:44;99832.11;;;-0.06;80.71
59588;BME280;45412;54.472;18.464;2023-11-21T06:34:34;99835.59;;;-0.06;80.86
59588;BME280;45412;54.472;18.464;2023-11-21T06:37:22;99839.36;;;-0.04;82.57
59588;BME280;45412;54.472;18.464;2023-11-21T06:40:10;99846.52;;;-0.04;81.26
59588;BME280;45412;54.472;18.464;2023-11-21T06:43:01;99857.23;;;-0.07;80.88
59588;BME280;45412;54.472;18.464;2023-11-21T06:45:49;99863.64;;;-0.10;81.03
59588;BME280;45412;54.472;18.464;2023-11-21T06:48:36;99867.97;;;-0.13;81.06
59588;BME280;45412;54.472;18.464;2023-11-21T06:51:25;99873.44;;;-0.15;81.23
59588;BME280;45412;54.472;18.464;2023-11-21T06:54:13;99877.67;;;-0.16;81.34
59588;BME280;45412;54.472;18.464;2023-11-21T06:57:02;99879.52;;;-0.19;81.15
59588;BME280;45412;54.472;18.464;2023-11-21T06:59:50;99892.97;;;-0.15;81.31
59588;BME280;45412;54.472;18.464;2023-11-21T07:02:38;99900.38;;;-0.13;81.62
59588;BME280;45412;54.472;18.464;2023-11-21T07:05:27;99897.59;;;-0.13;81.70
59588;BME280;45412;54.472;18.464;2023-11-21T07:08:15;99901.27;;;-0.13;81.48
59588;BME280;45412;54.472;18.464;2023-11-21T07:11:04;99907.05;;;-0.13;81.21
59588;BME280;45412;54.472;18.464;2023-11-21T07:13:51;99903.39;;;-0.14;81.39
59588;BME280;45412;54.472;18.464;2023-11-21T07:16:39;99907.65;;;-0.11;81.34
59588;BME280;45412;54.472;18.464;2023-11-21T07:19:28;99908.43;;;-0.09;80.65
59588;BME280;45412;54.472;18.464;2023-11-21T07:22:16;99911.37;;;-0.08;80.09
59588;BME280;45412;54.472;18.464;2023-11-21T07:25:09;99916.95;;;-0.08;79.66
59588;BME280;45412;54.472;18.464;2023-11-21T07:27:57;99913.48;;;-0.08;79.82
59588;BME280;45412;54.472;18.464;2023-11-21T07:30:45;99912.39;;;-0.12;79.70
59588;BME280;45412;54.472;18.464;2023-11-21T07:33:33;99912.71;;;-0.11;79.12
59588;BME280;45412;54.472;18.464;2023-11-21T07:36:21;99909.48;;;-0.09;79.10
59588;BME280;45412;54.472;18.464;2023-11-21T07:39:08;99910.85;;;-0.08;78.51
59588;BME280;45412;54.472;18.464;2023-11-21T07:41:58;99915.62;;;-0.05;78.81
59588;BME280;45412;54.472;18.464;2023-11-21T07:44:46;99919.38;;;0.03;79.18
59588;BME280;45412;54.472;18.464;2023-11-21T07:47:34;99917.32;;;0.11;78.84
59588;BME280;45412;54.472;18.464;2023-11-21T07:50:22;99916.30;;;0.15;78.13
59588;BME280;45412;54.472;18.464;2023-11-21T07:53:10;99910.61;;;0.18;77.28
59588;BME280;45412;54.472;18.464;2023-11-21T07:56:03;99916.83;;;0.24;77.35
59588;BME280;45412;54.472;18.464;2023-11-21T07:58:51;99921.77;;;0.32;77.56
59588;BME280;45412;54.472;18.464;2023-11-21T08:01:41;99917.50;;;0.34;77.13
59588;BME280;45412;54.472;18.464;2023-11-21T08:04:30;99922.73;;;0.34;76.42
59588;BME280;45412;54.472;18.464;2023-11-21T08:07:21;99926.23;;;0.39;76.01
59588;BME280;45412;54.472;18.464;2023-11-21T08:10:09;99925.99;;;0.45;76.43
59588;BME280;45412;54.472;18.464;2023-11-21T08:12:57;99931.59;;;0.63;76.68
59588;BME280;45412;54.472;18.464;2023-11-21T08:15:45;99932.80;;;0.86;76.04
59588;BME280;45412;54.472;18.464;2023-11-21T08:18:34;99934.73;;;0.98;75.29
59588;BME280;45412;54.472;18.464;2023-11-21T08:21:23;99933.34;;;1.33;73.46
59588;BME280;45412;54.472;18.464;2023-11-21T08:24:16;99933.02;;;1.62;72.41
59588;BME280;45412;54.472;18.464;2023-11-21T08:27:04;99932.60;;;2.65;69.34
59588;BME280;45412;54.472;18.464;2023-11-21T08:29:52;99939.42;;;2.99;68.49
59588;BME280;45412;54.472;18.464;2023-11-21T08:32:40;99941.89;;;3.52;65.80
59588;BME280;45412;54.472;18.464;2023-11-21T08:35:28;99940.73;;;3.75;62.18
59588;BME280;45412;54.472;18.464;2023-11-21T08:38:16;99948.14;;;4.12;62.09
59588;BME280;45412;54.472;18.464;2023-11-21T08:41:06;99942.58;;;4.67;59.86
59588;BME280;45412;54.472;18.464;2023-11-21T08:43:58;99947.59;;;5.40;57.87
59588;BME280;45412;54.472;18.464;2023-11-21T08:46:46;99944.28;;;6.80;53.49
59588;BME280;45412;54.472;18.464;2023-11-21T08:49:34;99947.48;;;6.54;52.64
59588;BME280;45412;54.472;18.464;2023-11-21T08:52:22;99952.08;;;6.37;50.76
59588;BME280;45412;54.472;18.464;2023-11-21T08:55:11;99949.25;;;6.11;50.48
59588;BME280;45412;54.472;18.464;2023-11-21T08:58:00;99959.58;;;5.73;50.83
59588;BME280;45412;54.472;18.464;2023-11-21T09:00:48;99957.91;;;4.88;49.64
59588;BME280;45412;54.472;18.464;2023-11-21T09:03:37;99961.09;;;4.39;51.30
59588;BME280;45412;54.472;18.464;2023-11-21T09:06:25;99971.02;;;4.25;51.50
59588;BME280;45412;54.472;18.464;2023-11-21T09:09:13;99976.05;;;3.81;51.40
59588;BME280;45412;54.472;18.464;2023-11-21T09:12:02;99977.73;;;3.51;52.37
59588;BME280;45412;54.472;18.464;2023-11-21T09:14:50;99976.14;;;3.19;52.64
59588;BME280;45412;54.472;18.464;2023-11-21T09:17:38;99982.64;;;2.89;53.34
59588;BME280;45412;54.472;18.464;2023-11-21T09:20:26;99975.88;;;2.66;53.75
59588;BME280;45412;54.472;18.464;2023-11-21T09:23:14;99981.73;;;2.48;54.77
59588;BME280;45412;54.472;18.464;2023-11-21T09:26:03;99987.06;;;2.47;55.40
59588;BME280;45412;54.472;18.464;2023-11-21T09:28:53;99987.90;;;2.35;56.33
59588;BME280;45412;54.472;18.464;2023-11-21T09:31:40;99991.77;;;2.27;56.62
59588;BME280;45412;54.472;18.464;2023-11-21T09:34:29;99989.10;;;2.16;57.27
59588;BME280;45412;54.472;18.464;2023-11-21T09:37:18;99984.33;;;2.01;57.07
59588;BME280;45412;54.472;18.464;2023-11-21T09:40:10;99988.38;;;1.93;58.15
59588;BME280;45412;54.472;18.464;2023-11-21T09:43:08;99991.30;;;1.82;58.32
59588;BME280;45412;54.472;18.464;2023-11-21T09:46:06;99992.77;;;1.67;58.51
59588;BME280;45412;54.472;18.464;2023-11-21T09:49:00;99995.02;;;1.59;59.02
59588;BME280;45412;54.472;18.464;2023-11-21T09:51:50;99992.19;;;1.52;59.21
59588;BME280;45412;54.472;18.464;2023-11-21T09:54:39;99991.85;;;1.48;59.79
59588;BME280;45412;54.472;18.464;2023-11-21T09:57:28;99994.67;;;1.47;60.48
59588;BME280;45412;54.472;18.464;2023-11-21T10:00:18;99995.10;;;1.45;60.28
59588;BME280;45412;54.472;18.464;2023-11-21T10:03:09;99995.98;;;1.45;60.23
59588;BME280;45412;54.472;18.464;2023-11-21T10:05:57;99987.50;;;1.43;60.55
59588;BME280;45412;54.472;18.464;2023-11-21T10:08:49;99984.45;;;1.44;60.81
59588;BME280;45412;54.472;18.464;2023-11-21T10:11:43;99986.90;;;1.49;60.71
59588;BME280;45412;54.472;18.464;2023-11-21T10:14:31;99989.95;;;1.51;60.31
59588;BME280;45412;54.472;18.464;2023-11-21T10:17:20;99993.79;;;1.60;60.72
59588;BME280;45412;54.472;18.464;2023-11-21T10:20:11;99998.98;;;1.74;60.68
59588;BME280;45412;54.472;18.464;2023-11-21T10:23:00;100005.30;;;1.81;60.55
59588;BME280;45412;54.472;18.464;2023-11-21T10:25:52;100009.13;;;1.86;60.61
59588;BME280;45412;54.472;18.464;2023-11-21T10:28:56;100005.84;;;1.81;60.53
59588;BME280;45412;54.472;18.464;2023-11-21T10:31:50;100006.25;;;1.80;60.92
59588;BME280;45412;54.472;18.464;2023-11-21T10:34:39;100014.30;;;1.76;60.56
59588;BME280;45412;54.472;18.464;2023-11-21T10:37:29;100019.80;;;1.69;60.94
59588;BME280;45412;54.472;18.464;2023-11-21T10:40:17;100023.84;;;1.65;61.50
59588;BME280;45412;54.472;18.464;2023-11-21T10:43:09;100028.27;;;1.59;61.64
59588;BME280;45412;54.472;18.464;2023-11-21T10:45:58;100031.77;;;1.55;62.31
59588;BME280;45412;54.472;18.464;2023-11-21T10:48:53;100031.93;;;1.51;62.03
59588;BME280;45412;54.472;18.464;2023-11-21T10:51:44;100033.04;;;1.45;61.59
59588;BME280;45412;54.472;18.464;2023-11-21T10:54:31;100028.60;;;1.42;62.31
59588;BME280;45412;54.472;18.464;2023-11-21T10:57:20;100033.92;;;1.40;62.27
59588;BME280;45412;54.472;18.464;2023-11-21T11:00:12;100036.67;;;1.37;62.26
59588;BME280;45412;54.472;18.464;2023-11-21T11:03:02;100038.05;;;1.38;63.07
59588;BME280;45412;54.472;18.464;2023-11-21T11:05:52;100039.17;;;1.40;63.02
59588;BME280;45412;54.472;18.464;2023-11-21T11:08:41;100040.30;;;1.38;62.72
59588;BME280;45412;54.472;18.464;2023-11-21T11:11:30;100043.21;;;1.35;62.72
59588;BME280;45412;54.472;18.464;2023-11-21T11:14:18;100044.65;;;1.34;62.54
59588;BME280;45412;54.472;18.464;2023-11-21T11:17:07;100048.35;;;1.33;62.37
59588;BME280;45412;54.472;18.464;2023-11-21T11:19:56;100053.16;;;1.36;62.44
59588;BME280;45412;54.472;18.464;2023-11-21T11:33:41;100063.26;;;1.55;61.24
59588;BME280;45412;54.472;18.464;2023-11-21T11:36:46;100060.35;;;1.66;61.73
59588;BME280;45412;54.472;18.464;2023-11-21T11:39:40;100062.00;;;1.86;61.78
59588;BME280;45412;54.472;18.464;2023-11-21T11:42:33;100065.71;;;2.05;61.56
59588;BME280;45412;54.472;18.464;2023-11-21T11:45:24;100069.73;;;2.22;60.84
59588;BME280;45412;54.472;18.464;2023-11-21T11:48:22;100065.80;;;2.28;59.11
59588;BME280;45412;54.472;18.464;2023-11-21T11:51:13;100065.59;;;2.33;58.53
59588;BME280;45412;54.472;18.464;2023-11-21T11:54:09;100063.59;;;2.42;58.62
59588;BME280;45412;54.472;18.464;2023-11-21T11:56:59;100063.91;;;3.54;57.41
59588;BME280;45412;54.472;18.464;2023-11-21T12:00:17;100059.99;;;4.46;55.01
59588;BME280;45412;54.472;18.464;2023-11-21T12:03:09;100056.71;;;4.72;52.58
59588;BME280;45412;54.472;18.464;2023-11-21T12:05:57;100063.89;;;4.69;53.24
59588;BME280;45412;54.472;18.464;2023-11-21T12:08:46;100070.73;;;4.73;53.31
59588;BME280;45412;54.472;18.464;2023-11-21T12:11:36;100064.91;;;5.16;52.26
59588;BME280;45412;54.472;18.464;2023-11-21T12:14:24;100064.80;;;5.46;50.79
59588;BME280;45412;54.472;18.464;2023-11-21T12:17:13;100069.26;;;5.48;49.78
59588;BME280;45412;54.472;18.464;2023-11-21T12:20:03;100058.41;;;5.25;49.20
59588;BME280;45412;54.472;18.464;2023-11-21T12:22:58;100069.01;;;5.37;48.99
59588;BME280;45412;54.472;18.464;2023-11-21T12:25:49;100072.23;;;5.04;49.44
59588;BME280;45412;54.472;18.464;2023-11-21T12:28:37;100073.35;;;4.80;48.87
59588;BME280;45412;54.472;18.464;2023-11-21T12:31:26;100089.92;;;4.52;49.76
59588;BME280;45412;54.472;18.464;2023-11-21T12:34:14;100091.05;;;4.20;50.10
59588;BME280;45412;54.472;18.464;2023-11-21T12:37:02;100089.51;;;3.97;50.89
59588;BME280;45412;54.472;18.464;2023-11-21T12:39:50;100094.73;;;3.80;51.88
59588;BME280;45412;54.472;18.464;2023-11-21T12:42:41;100094.81;;;3.61;52.29
59588;BME280;45412;54.472;18.464;2023-11-21T12:45:32;100097.15;;;3.60;52.91
59588;BME280;45412;54.472;18.464;2023-11-21T12:48:20;100100.86;;;3.67;53.62
59588;BME280;45412;54.472;18.464;2023-11-21T12:51:12;100100.75;;;3.61;53.98
59588;BME280;45412;54.472;18.464;2023-11-21T12:54:02;100104.27;;;3.57;54.20
59588;BME280;45412;54.472;18.464;2023-11-21T12:56:49;100103.09;;;3.46;54.93
59588;BME280;45412;54.472;18.464;2023-11-21T12:59:38;100102.27;;;3.33;56.10
59588;BME280;45412;54.472;18.464;2023-11-21T13:02:27;100108.30;;;3.24;56.66
59588;BME280;45412;54.472;18.464;2023-11-21T13:05:24;100114.94;;;3.09;57.59
59588;BME280;45412;54.472;18.464;2023-11-21T13:08:13;100119.23;;;2.96;58.05
59588;BME280;45412;54.472;18.464;2023-11-21T13:11:01;100123.88;;;2.90;58.62
59588;BME280;45412;54.472;18.464;2023-11-21T13:13:51;100124.98;;;2.85;59.04
59588;BME280;45412;54.472;18.464;2023-11-21T13:16:41;100124.14;;;2.72;59.53
59588;BME280;45412;54.472;18.464;2023-11-21T13:19:34;100120.36;;;2.62;60.11
59588;BME280;45412;54.472;18.464;2023-11-21T13:22:22;100128.71;;;2.60;60.64
59588;BME280;45412;54.472;18.464;2023-11-21T13:25:12;100131.48;;;2.56;61.49
59588;BME280;45412;54.472;18.464;2023-11-21T13:28:02;100136.28;;;2.50;62.31
59588;BME280;45412;54.472;18.464;2023-11-21T13:30:50;100145.15;;;2.44;63.42
59588;BME280;45412;54.472;18.464;2023-11-21T13:33:40;100147.67;;;2.33;64.11
59588;BME280;45412;54.472;18.464;2023-11-21T13:36:30;100152.66;;;2.15;62.55
59588;BME280;45412;54.472;18.464;2023-11-21T13:39:23;100157.52;;;2.03;62.36
59588;BME280;45412;54.472;18.464;2023-11-21T13:42:13;100158.46;;;1.97;62.28
59588;BME280;45412;54.472;18.464;2023-11-21T13:45:04;100159.71;;;1.92;62.42
59588;BME280;45412;54.472;18.464;2023-11-21T13:47:53;100163.65;;;1.90;63.48
59588;BME280;45412;54.472;18.464;2023-11-21T13:50:46;100163.52;;;1.89;63.48
59588;BME280;45412;54.472;18.464;2023-11-21T13:53:47;100163.33;;;1.85;63.58
59588;BME280;45412;54.472;18.464;2023-11-21T13:56:38;100167.55;;;1.80;63.48
59588;BME280;45412;54.472;18.464;2023-11-21T13:59:28;100163.70;;;1.71;63.78
59588;BME280;45412;54.472;18.464;2023-11-21T14:02:17;100169.19;;;1.65;64.36
59588;BME280;45412;54.472;18.464;2023-11-21T14:05:07;100168.23;;;1.58;64.47
59588;BME280;45412;54.472;18.464;2023-11-21T14:07:59;100172.89;;;1.50;64.92
59588;BME280;45412;54.472;18.464;2023-11-21T14:10:52;100178.33;;;1.41;65.32
59588;BME280;45412;54.472;18.464;2023-11-21T14:13:43;100181.02;;;1.34;65.80
59588;BME280;45412;54.472;18.464;2023-11-21T14:16:34;100179.52;;;1.32;66.53
59588;BME280;45412;54.472;18.464;2023-11-21T14:19:40;100179.24;;;1.30;66.98
59588;BME280;45412;54.472;18.464;2023-11-21T14:22:31;100178.67;;;1.27;66.74
59588;BME280;45412;54.472;18.464;2023-11-21T14:25:19;100186.03;;;1.22;66.22
59588;BME280;45412;54.472;18.464;2023-11-21T14:28:07;100185.48;;;1.17;66.42
59588;BME280;45412;54.472;18.464;2023-11-21T14:30:55;100194.84;;;1.15;66.88
59588;BME280;45412;54.472;18.464;2023-11-21T14:33:46;100202.65;;;1.11;67.22
59588;BME280;45412;54.472;18.464;2023-11-21T14:36:35;100204.70;;;1.08;67.60
59588;BME280;45412;54.472;18.464;2023-11-21T14:39:24;100207.34;;;1.03;68.40
59588;BME280;45412;54.472;18.464;2023-11-21T14:42:16;100198.95;;;0.98;68.78
59588;BME280;45412;54.472;18.464;2023-11-21T14:45:11;100198.85;;;0.96;69.04
59588;BME280;45412;54.472;18.464;2023-11-21T14:48:01;100199.31;;;0.93;69.75
59588;BME280;45412;54.472;18.464;2023-11-21T14:50:54;100197.98;;;0.90;70.07
59588;BME280;45412;54.472;18.464;2023-11-21T14:53:51;100201.80;;;0.87;70.65
59588;BME280;45412;54.472;18.464;2023-11-21T14:56:42;100206.71;;;0.86;71.28
59588;BME280;45412;54.472;18.464;2023-11-21T14:59:32;100207.42;;;0.80;72.77
59588;BME280;45412;54.472;18.464;2023-11-21T15:02:20;100217.52;;;0.76;73.47